Time;durP1;ratioP1;P1;durP2;ratioP2;P2;SDS_P1;SDS_P2;PMS_P1;PMS_P2;Temp;Humidity;BMP_temperature;BMP_pressure;BME280_temperature;BME280_humidity;BME280_pressure;Samples;Min_cycle;Max_cycle;Signal;HPM_P1;HPM_P2
2024/04/24 00:02:10;;;;;;;15.75;11.68;;;;;;;6.46;60.45;98219.28;5437885;26;20437;-72
2024/04/24 00:04:35;;;;;;;15.32;11.43;;;;;;;6.45;60.20;98212.34;5420405;26;20006;-72
2024/04/24 00:07:01;;;;;;;17.67;12.38;;;;;;;6.62;59.95;98221.97;5432336;26;20003;-73
2024/04/24 00:09:26;;;;;;;20.70;12.52;;;;;;;6.55;60.32;98223.16;5426971;26;20175;-73
2024/04/24 00:11:51;;;;;;;14.60;10.68;;;;;;;6.41;60.87;98224.47;5432350;26;20013;-72
2024/04/24 00:14:17;;;;;;;14.45;12.75;;;;;;;6.21;60.84;98209.00;5435940;26;20343;-73
2024/04/24 00:16:42;;;;;;;16.10;12.98;;;;;;;6.18;61.61;98190.91;5429628;26;20051;-72
2024/04/24 00:19:07;;;;;;;17.98;12.68;;;;;;;6.15;62.25;98190.59;5419796;26;19995;-73
2024/04/24 00:21:33;;;;;;;19.42;13.43;;;;;;;6.26;62.62;98193.22;5417690;26;20008;-73
2024/04/24 00:23:58;;;;;;;18.75;14.02;;;;;;;6.37;62.48;98192.34;5423252;26;20023;-72
2024/04/24 00:26:23;;;;;;;16.52;13.55;;;;;;;6.34;62.46;98171.63;5431324;26;20007;-73
2024/04/24 00:28:49;;;;;;;19.27;14.07;;;;;;;6.58;61.57;98178.41;5426786;26;20006;-73
2024/04/24 00:31:14;;;;;;;19.88;14.63;;;;;;;6.48;62.66;98172.94;5430425;26;20458;-73
2024/04/24 00:33:39;;;;;;;18.95;13.50;;;;;;;6.40;62.98;98167.22;5432197;26;20459;-73
2024/04/24 00:36:05;;;;;;;18.20;14.07;;;;;;;6.34;63.09;98161.00;5434790;26;20011;-73
2024/04/24 00:38:30;;;;;;;18.88;13.85;;;;;;;6.38;62.95;98164.78;5429645;26;20010;-73
2024/04/24 00:40:56;;;;;;;22.13;15.52;;;;;;;6.45;62.84;98169.94;5431975;26;20011;-73
2024/04/24 00:43:21;;;;;;;18.90;14.50;;;;;;;6.59;62.18;98180.03;5424101;26;20007;-73
2024/04/24 00:45:46;;;;;;;21.50;15.20;;;;;;;6.10;63.71;98148.91;5431370;26;20010;-72
2024/04/24 00:48:12;;;;;;;19.75;14.23;;;;;;;6.23;63.50;98174.31;5438002;26;20003;-73
2024/04/24 00:50:40;;;;;;;21.08;14.60;;;;;;;6.17;63.88;98152.22;5424320;26;20010;-73
2024/04/24 00:53:06;;;;;;;18.73;14.23;;;;;;;6.15;64.21;98162.25;5430015;26;20131;-73
2024/04/24 00:55:32;;;;;;;19.42;14.88;;;;;;;6.13;63.77;98160.88;5431585;26;22065;-73
2024/04/24 00:57:58;;;;;;;19.95;14.80;;;;;;;6.16;63.71;98160.41;5433340;26;19991;-73
2024/04/24 01:00:23;;;;;;;23.20;16.88;;;;;;;6.02;64.77;98154.59;5415316;26;20024;-73
2024/04/24 01:02:49;;;;;;;21.80;16.90;;;;;;;6.07;65.09;98152.84;5434307;26;19991;-73
2024/04/24 01:05:14;;;;;;;19.20;16.30;;;;;;;6.04;64.74;98144.56;5421783;26;19995;-73
2024/04/24 01:07:41;;;;;;;18.65;14.43;;;;;;;5.81;65.82;98148.06;5436561;26;20512;-72
2024/04/24 01:10:17;;;;;;;24.48;16.77;;;;;;;6.07;65.44;98146.75;5432201;26;19995;-74
2024/04/24 01:12:42;;;;;;;22.48;16.70;;;;;;;6.07;65.50;98133.50;5431037;26;20076;-72
2024/04/24 01:15:09;;;;;;;23.98;17.38;;;;;;;6.03;66.03;98129.69;5428031;26;20011;-73
2024/04/24 01:17:37;;;;;;;23.25;17.70;;;;;;;5.92;66.30;98126.06;5429254;26;20064;-73
2024/04/24 01:20:05;;;;;;;25.30;18.40;;;;;;;6.21;66.01;98126.88;5429276;26;20014;-73
2024/04/24 01:22:55;;;;;;;29.60;18.85;;;;;;;6.17;66.10;98131.03;5429350;26;20675;-73
2024/04/24 01:25:52;;;;;;;25.60;19.20;;;;;;;6.10;66.63;98125.06;5427187;26;20007;-73
2024/04/24 01:28:18;;;;;;;26.10;17.25;;;;;;;6.12;66.01;98107.09;5432852;26;20007;-72
2024/04/24 01:30:43;;;;;;;26.08;19.55;;;;;;;6.14;66.87;98114.81;5433372;26;20364;-73
2024/04/24 01:33:08;;;;;;;26.83;19.92;;;;;;;6.24;66.27;98109.69;5439573;26;20071;-73
2024/04/24 01:35:34;;;;;;;26.30;18.98;;;;;;;6.29;66.16;98107.13;5431099;26;19995;-73
2024/04/24 01:38:00;;;;;;;29.38;19.45;;;;;;;6.10;66.73;98100.41;5427853;26;20013;-73
2024/04/24 01:40:25;;;;;;;26.23;19.20;;;;;;;6.10;67.41;98109.19;5425827;26;19996;-72
2024/04/24 01:42:50;;;;;;;24.77;18.25;;;;;;;6.09;67.32;98104.13;5434692;26;20012;-72
2024/04/24 01:45:16;;;;;;;26.75;18.90;;;;;;;6.09;66.93;98106.78;5437062;26;20072;-73
2024/04/24 01:47:41;;;;;;;29.92;19.83;;;;;;;6.02;67.85;98096.31;5442156;26;20042;-73
2024/04/24 01:50:07;;;;;;;26.67;19.55;;;;;;;5.86;68.41;98082.00;5428976;26;20080;-73
2024/04/24 01:52:32;;;;;;;27.10;19.10;;;;;;;6.10;68.01;98100.41;5429263;26;20043;-73
2024/04/24 01:54:57;;;;;;;27.02;19.90;;;;;;;5.96;68.73;98087.47;5436143;26;20007;-72
2024/04/24 01:57:22;;;;;;;25.83;19.60;;;;;;;6.07;69.02;98093.78;5433251;26;20303;-73
2024/04/24 01:59:48;;;;;;;25.23;18.80;;;;;;;6.21;68.56;98095.06;5429177;26;19995;-72
2024/04/24 02:02:14;;;;;;;29.23;19.50;;;;;;;6.31;68.56;98094.44;5429106;26;20646;-73
2024/04/24 02:04:39;;;;;;;31.77;21.02;;;;;;;6.42;67.75;98088.28;5419297;26;20007;-73
2024/04/24 02:07:04;;;;;;;29.17;21.08;;;;;;;6.35;68.21;98088.44;5445524;26;20067;-73
2024/04/24 02:09:30;;;;;;;29.65;21.58;;;;;;;6.19;69.45;98088.41;5422001;26;22161;-73
2024/04/24 02:11:55;;;;;;;27.02;20.98;;;;;;;6.09;69.05;98085.56;5425441;26;20610;-73
2024/04/24 02:14:20;;;;;;;27.75;20.50;;;;;;;5.93;70.19;98080.00;5434225;26;20002;-74
2024/04/24 02:16:46;;;;;;;28.60;20.13;;;;;;;5.89;71.28;98070.94;5432175;26;19999;-73
2024/04/24 02:19:11;;;;;;;27.83;20.98;;;;;;;5.72;71.73;98072.69;5437385;26;20007;-73
2024/04/24 02:21:36;;;;;;;29.88;21.67;;;;;;;5.95;71.22;98069.97;5417445;26;20004;-72
2024/04/24 02:24:02;;;;;;;33.10;22.63;;;;;;;5.90;71.62;98067.22;5433744;26;20329;-73
2024/04/24 02:26:27;;;;;;;32.25;21.00;;;;;;;5.69;71.94;98065.22;5426317;26;20071;-73
2024/04/24 02:28:53;;;;;;;30.85;22.15;;;;;;;5.73;72.19;98070.84;5430880;26;20426;-72
2024/04/24 02:31:18;;;;;;;34.17;23.35;;;;;;;5.69;71.63;98067.88;5438240;26;20053;-72
2024/04/24 02:33:43;;;;;;;34.60;22.08;;;;;;;6.01;71.56;98073.50;5407322;26;20000;-73
2024/04/24 02:36:09;;;;;;;32.30;23.25;;;;;;;6.13;70.47;98063.69;5431817;26;19995;-73
2024/04/24 02:38:34;;;;;;;34.25;23.50;;;;;;;5.82;71.29;98062.28;5426955;26;20004;-72
2024/04/24 02:40:59;;;;;;;30.92;22.15;;;;;;;5.90;71.92;98061.13;5427296;26;20102;-73
2024/04/24 02:43:25;;;;;;;36.35;24.52;;;;;;;5.96;71.42;98060.19;5441298;26;20014;-73
2024/04/24 02:45:50;;;;;;;32.72;23.42;;;;;;;5.95;70.91;98042.69;5439081;26;20342;-72
2024/04/24 02:48:15;;;;;;;30.73;22.38;;;;;;;6.10;71.50;98058.84;5443755;26;20006;-73
2024/04/24 02:50:41;;;;;;;34.78;23.15;;;;;;;5.92;71.71;98056.41;5429719;26;20007;-73
2024/04/24 02:53:06;;;;;;;32.75;24.58;;;;;;;5.89;72.68;98041.81;5434464;26;19996;-73
2024/04/24 02:55:31;;;;;;;32.22;23.98;;;;;;;6.10;71.78;98050.09;5428258;26;19999;-73
2024/04/24 02:57:57;;;;;;;33.33;22.27;;;;;;;6.08;71.65;98029.13;5424440;26;20010;-73
2024/04/24 03:00:22;;;;;;;32.13;23.75;;;;;;;5.93;72.03;98040.28;5439191;26;20387;-73
2024/04/24 03:02:48;;;;;;;33.67;23.50;;;;;;;6.02;71.98;98038.84;5428120;26;20003;-73
2024/04/24 03:05:13;;;;;;;35.85;24.15;;;;;;;5.98;72.18;98031.63;5435242;26;20009;-73
2024/04/24 03:07:39;;;;;;;34.35;24.65;;;;;;;5.83;73.38;98032.13;5430694;26;20459;-72
2024/04/24 03:10:04;;;;;;;30.73;23.98;;;;;;;5.85;72.64;98032.72;5419586;26;20372;-73
2024/04/24 03:12:30;;;;;;;35.67;24.85;;;;;;;5.86;72.23;98028.22;5430665;26;20877;-73
2024/04/24 03:14:55;;;;;;;36.65;24.83;;;;;;;5.91;72.10;98020.38;5425298;26;19995;-73
2024/04/24 03:17:20;;;;;;;34.95;25.73;;;;;;;5.68;73.58;98018.59;5431892;26;19999;-73
2024/04/24 03:19:46;;;;;;;34.83;23.25;;;;;;;5.82;72.45;98019.13;5425589;26;20013;-73
2024/04/24 03:22:13;;;;;;;36.25;24.92;;;;;;;5.78;72.89;98010.88;5440628;26;20071;-72
2024/04/24 03:24:38;;;;;;;35.20;24.20;;;;;;;5.81;72.63;98005.06;5427260;26;20015;-71
2024/04/24 03:27:04;;;;;;;32.33;23.33;;;;;;;5.85;72.69;98005.44;5432387;26;20010;-73
2024/04/24 03:29:29;;;;;;;32.38;23.77;;;;;;;5.81;72.61;97991.84;5431119;26;20004;-73
2024/04/24 03:31:54;;;;;;;34.00;24.63;;;;;;;5.78;72.77;97981.75;5435157;26;20035;-73
2024/04/24 03:34:20;;;;;;;33.40;23.17;;;;;;;5.61;73.43;97988.84;5425147;26;20006;-73
2024/04/24 03:36:45;;;;;;;32.53;22.38;;;;;;;5.63;73.23;97986.78;5431839;26;19996;-72
2024/04/24 03:39:11;;;;;;;35.38;23.02;;;;;;;5.37;73.26;97979.41;5433830;26;19996;-73
2024/04/24 03:41:36;;;;;;;33.47;22.98;;;;;;;5.60;73.85;97983.78;5415766;26;20473;-72
2024/04/24 03:44:01;;;;;;;32.60;21.50;;;;;;;5.62;73.27;97992.28;5432879;26;20069;-72
2024/04/24 03:46:27;;;;;;;31.58;21.45;;;;;;;5.61;73.06;97980.91;5438635;26;20846;-72
2024/04/24 03:48:52;;;;;;;30.48;21.63;;;;;;;5.56;73.24;97987.94;5440345;26;20697;-73
2024/04/24 03:51:17;;;;;;;33.85;22.30;;;;;;;5.42;73.32;97987.41;5419488;26;20600;-73
2024/04/24 03:53:43;;;;;;;30.45;21.10;;;;;;;5.13;74.07;97981.31;5435455;26;20006;-73
2024/04/24 03:56:08;;;;;;;30.88;20.73;;;;;;;5.48;73.44;97983.84;5426133;26;20013;-73
2024/04/24 03:58:34;;;;;;;29.58;21.48;;;;;;;5.18;73.18;97962.91;5425459;26;20006;-73
2024/04/24 04:00:59;;;;;;;34.55;21.83;;;;;;;5.16;73.86;97974.75;5421773;26;20019;-72
2024/04/24 04:03:24;;;;;;;30.90;19.50;;;;;;;5.24;73.84;97961.94;5432635;26;20035;-71
2024/04/24 04:05:49;;;;;;;28.55;20.63;;;;;;;5.48;73.32;97975.91;5421552;26;20000;-72
2024/04/24 04:08:15;;;;;;;30.13;20.10;;;;;;;5.52;73.28;97974.38;5427654;26;19992;-72
2024/04/24 04:10:40;;;;;;;30.25;20.75;;;;;;;5.53;72.72;97972.53;5430571;26;20346;-72
2024/04/24 04:13:05;;;;;;;29.58;19.85;;;;;;;5.32;72.76;97976.66;5415001;26;23197;-72
2024/04/24 04:15:31;;;;;;;37.45;21.08;;;;;;;5.35;73.50;97973.56;5413337;26;20800;-73
2024/04/24 04:17:56;;;;;;;30.73;21.83;;;;;;;5.43;73.64;97983.75;5416513;26;19999;-73
2024/04/24 04:20:21;;;;;;;29.63;18.65;;;;;;;5.33;73.50;97980.91;5420179;26;20096;-72
2024/04/24 04:22:47;;;;;;;27.73;19.25;;;;;;;5.33;74.12;97975.59;5433899;26;20151;-73
2024/04/24 04:25:12;;;;;;;26.17;19.63;;;;;;;5.28;74.46;97978.97;5415431;26;20017;-72
2024/04/24 04:27:39;;;;;;;30.02;19.30;;;;;;;5.19;74.25;97953.13;5416314;26;20478;-72
2024/04/24 04:30:05;;;;;;;28.88;17.88;;;;;;;5.37;72.97;97975.94;5432742;26;19999;-72
2024/04/24 04:32:31;;;;;;;29.70;19.48;;;;;;;5.53;73.52;97960.09;5422042;26;19995;-72
2024/04/24 04:34:56;;;;;;;28.90;18.48;;;;;;;5.28;73.82;97947.25;5425440;26;20464;-73
2024/04/24 04:37:21;;;;;;;24.75;18.58;;;;;;;5.45;73.45;97955.19;5422592;26;20077;-73
2024/04/24 04:39:47;;;;;;;26.60;17.08;;;;;;;5.47;73.66;97949.66;5419451;26;20015;-72
2024/04/24 04:42:12;;;;;;;27.08;16.85;;;;;;;5.52;72.97;97937.34;5425292;26;20130;-73
2024/04/24 04:44:37;;;;;;;24.77;17.05;;;;;;;5.48;73.89;97951.28;5427235;26;19995;-73
2024/04/24 04:47:03;;;;;;;27.45;18.17;;;;;;;4.92;75.39;97947.56;5415281;26;20011;-72
2024/04/24 04:49:28;;;;;;;22.42;16.17;;;;;;;5.11;75.19;97941.06;5429273;26;20089;-73
2024/04/24 04:51:53;;;;;;;24.77;16.88;;;;;;;5.26;74.64;97953.78;5417401;26;20006;-73
2024/04/24 04:54:19;;;;;;;26.65;15.88;;;;;;;5.39;74.56;97950.06;5405120;26;20472;-73
2024/04/24 04:56:44;;;;;;;25.05;15.98;;;;;;;5.56;73.91;97943.75;5424517;26;20692;-72
2024/04/24 04:59:10;;;;;;;25.33;15.40;;;;;;;5.52;74.12;97940.00;5423399;26;20003;-74
2024/04/24 05:01:35;;;;;;;25.30;16.55;;;;;;;5.48;74.07;97946.00;5423021;26;19999;-73
2024/04/24 05:04:00;;;;;;;21.80;15.57;;;;;;;5.35;73.93;97938.34;5422151;26;20072;-73
2024/04/24 05:06:26;;;;;;;30.05;15.27;;;;;;;5.45;74.27;97955.19;5411088;26;20120;-73
2024/04/24 05:08:52;;;;;;;22.52;14.65;;;;;;;5.44;74.62;97940.34;5417465;26;20696;-73
2024/04/24 05:11:17;;;;;;;23.10;15.68;;;;;;;5.51;73.66;97941.00;5430254;26;20465;-73
2024/04/24 05:13:42;;;;;;;17.83;13.35;;;;;;;5.33;74.63;97936.72;5438676;26;20007;-73
2024/04/24 05:16:11;;;;;;;25.30;14.90;;;;;;;5.44;73.69;97929.78;5412857;26;19999;-73
2024/04/24 05:18:37;;;;;;;23.70;15.32;;;;;;;5.28;74.58;97949.06;5434009;26;20559;-73
2024/04/24 05:21:02;;;;;;;18.45;13.18;;;;;;;5.05;75.26;97927.97;5427703;26;19995;-73
2024/04/24 05:23:28;;;;;;;22.08;15.48;;;;;;;4.87;75.20;97925.53;5413653;26;19995;-73
2024/04/24 05:25:55;;;;;;;25.65;13.85;;;;;;;5.34;75.26;97932.25;5416897;26;19996;-72
2024/04/24 05:31:05;;;;;;;24.67;13.48;;;;;;;5.55;74.22;97923.63;5445307;26;20072;-73
2024/04/24 05:33:30;;;;;;;20.40;13.25;;;;;;;5.47;74.15;97916.06;5440126;26;20688;-72
2024/04/24 05:35:55;;;;;;;25.77;13.88;;;;;;;5.60;74.04;97923.72;5446515;26;20002;-72
2024/04/24 05:38:21;;;;;;;25.42;12.07;;;;;;;5.58;74.17;97920.50;5428741;26;19999;-73
2024/04/24 05:40:46;;;;;;;21.30;13.43;;;;;;;5.49;73.78;97907.88;5438600;26;19991;-72
2024/04/24 05:43:12;;;;;;;19.83;12.93;;;;;;;5.66;73.69;97912.16;5433561;26;20018;-73
2024/04/24 05:45:37;;;;;;;20.45;12.63;;;;;;;5.58;73.42;97904.63;5442647;26;19996;-73
2024/04/24 05:48:03;;;;;;;17.63;12.20;;;;;;;5.38;73.98;97912.19;5433352;26;20006;-73
2024/04/24 05:50:28;;;;;;;18.67;12.55;;;;;;;5.35;74.61;97910.06;5422657;26;20006;-73
2024/04/24 05:52:54;;;;;;;16.88;11.60;;;;;;;5.48;74.34;97908.94;5444274;26;20435;-73
2024/04/24 05:55:19;;;;;;;22.27;11.80;;;;;;;5.30;75.20;97913.41;5418463;26;19995;-73
2024/04/24 05:57:44;;;;;;;20.02;11.80;;;;;;;5.17;74.70;97895.19;5440825;26;19998;-72
2024/04/24 06:00:10;;;;;;;17.45;9.27;;;;;;;5.08;74.21;97909.00;5447037;26;19999;-72
2024/04/24 06:02:36;;;;;;;13.05;9.10;;;;;;;5.21;74.03;97896.31;5432752;26;20459;-72
2024/04/24 06:05:01;;;;;;;16.45;10.13;;;;;;;5.30;74.31;97902.81;5410848;26;20000;-72
2024/04/24 06:07:27;;;;;;;13.65;8.50;;;;;;;5.42;72.98;97892.16;5412347;26;20361;-72
2024/04/24 06:09:53;;;;;;;8.95;7.55;;;;;;;5.42;73.23;97902.75;5414654;26;19996;-72
2024/04/24 06:12:18;;;;;;;6.35;4.40;;;;;;;5.32;72.20;97902.56;5414541;26;20355;-72
2024/04/24 06:14:44;;;;;;;7.70;6.45;;;;;;;5.57;72.29;97886.34;5414848;26;20000;-72
2024/04/24 06:17:11;;;;;;;12.60;5.93;;;;;;;5.66;71.60;97906.88;5415249;26;20006;-73
2024/04/24 06:19:36;;;;;;;8.43;5.78;;;;;;;5.65;71.35;97899.97;5414443;26;20468;-72
2024/04/24 06:22:01;;;;;;;10.50;6.13;;;;;;;5.83;71.54;97902.38;5415168;26;20492;-73
2024/04/24 06:24:27;;;;;;;7.47;4.18;;;;;;;5.74;71.04;97901.19;5412850;26;20464;-72
2024/04/24 06:26:52;;;;;;;5.63;4.35;;;;;;;5.63;71.74;97888.84;5414848;26;20015;-72
2024/04/24 06:29:17;;;;;;;11.88;5.43;;;;;;;5.50;73.09;97904.22;5414017;26;20455;-73
2024/04/24 06:31:43;;;;;;;7.43;5.13;;;;;;;5.31;73.93;97915.00;5414947;26;19996;-72
2024/04/24 06:34:08;;;;;;;8.55;5.35;;;;;;;5.53;73.40;97912.47;5414821;26;19996;-73
2024/04/24 06:36:33;;;;;;;10.82;5.60;;;;;;;5.59;72.99;97911.50;5415988;26;19991;-72
2024/04/24 06:39:00;;;;;;;9.80;5.18;;;;;;;5.66;73.15;97906.88;5412330;26;20456;-73
2024/04/24 06:41:25;;;;;;;6.88;4.40;;;;;;;5.31;73.54;97914.19;5421752;26;20089;-72
2024/04/24 06:43:53;;;;;;;6.82;4.18;;;;;;;5.40;73.71;97917.25;5425147;26;20444;-72
2024/04/24 06:46:19;;;;;;;5.72;3.90;;;;;;;5.25;73.90;97926.53;5414557;26;20340;-72
2024/04/24 06:48:44;;;;;;;7.93;4.07;;;;;;;5.33;74.71;97920.03;5418971;26;20004;-73
2024/04/24 06:51:09;;;;;;;9.45;4.95;;;;;;;5.69;73.35;97909.03;5413851;26;20669;-72
2024/04/24 06:53:35;;;;;;;6.15;4.20;;;;;;;5.54;72.94;97903.50;5413997;26;19996;-73
2024/04/24 06:56:01;;;;;;;9.23;4.65;;;;;;;5.80;72.68;97908.16;5414308;26;20015;-72
2024/04/24 06:58:30;;;;;;;6.80;4.63;;;;;;;5.83;72.13;97902.38;5414084;26;19999;-72
2024/04/24 07:00:56;;;;;;;8.75;4.60;;;;;;;5.79;72.35;97903.91;5414376;26;20007;-72
2024/04/24 07:03:23;;;;;;;6.68;5.25;;;;;;;5.73;72.93;97901.41;5412585;26;19996;-73
2024/04/24 07:05:51;;;;;;;9.85;4.60;;;;;;;6.00;72.37;97892.63;5424104;26;21081;-72
2024/04/24 07:08:19;;;;;;;7.13;4.10;;;;;;;5.97;71.88;97890.44;5431919;26;19999;-72
2024/04/24 07:10:44;;;;;;;8.80;4.38;;;;;;;5.86;72.47;97882.59;5414150;26;20406;-72
2024/04/24 07:13:10;;;;;;;9.68;4.85;;;;;;;5.73;72.81;97867.81;5414175;26;20003;-72
2024/04/24 07:15:35;;;;;;;10.15;4.65;;;;;;;6.03;71.55;97881.53;5412211;26;19995;-72
2024/04/24 07:18:00;;;;;;;12.27;5.32;;;;;;;5.60;73.23;97886.66;5411689;26;20074;-72
2024/04/24 07:20:26;;;;;;;8.38;4.55;;;;;;;5.84;73.35;97877.53;5412449;26;19999;-72
2024/04/24 07:22:51;;;;;;;12.15;5.35;;;;;;;5.77;73.51;97870.75;5442693;26;19995;-72
2024/04/24 07:25:16;;;;;;;9.85;5.20;;;;;;;5.91;72.32;97870.25;5449635;26;20097;-72
2024/04/24 07:27:42;;;;;;;7.15;4.25;;;;;;;5.88;71.88;97852.19;5424525;26;20069;-72
2024/04/24 07:30:07;;;;;;;16.25;4.88;;;;;;;5.39;74.53;97865.38;5414038;26;20003;-72
2024/04/24 07:32:33;;;;;;;9.55;4.22;;;;;;;5.90;73.07;97865.16;5425885;26;19995;-72
2024/04/24 07:34:58;;;;;;;12.55;5.13;;;;;;;5.89;73.02;97868.88;5449918;26;20017;-72
2024/04/24 07:37:24;;;;;;;11.70;4.30;;;;;;;6.05;71.81;97870.69;5449640;26;19995;-72
2024/04/24 07:39:49;;;;;;;5.32;4.25;;;;;;;5.96;71.96;97862.34;5449510;26;20014;-72
2024/04/24 07:42:15;;;;;;;10.40;3.85;;;;;;;6.07;71.81;97857.22;5449696;26;20014;-72
2024/04/24 07:44:43;;;;;;;5.95;3.40;;;;;;;6.12;71.99;97852.78;5449918;26;20011;-72
2024/04/24 07:47:09;;;;;;;13.27;5.15;;;;;;;6.07;72.48;97858.81;5425224;26;19992;-72
2024/04/24 07:49:34;;;;;;;7.68;3.20;;;;;;;5.94;72.82;97856.50;5411524;26;20501;-72
2024/04/24 07:52:00;;;;;;;6.50;3.90;;;;;;;6.31;71.39;97861.25;5422332;26;20002;-72
2024/04/24 07:54:25;;;;;;;6.80;3.15;;;;;;;6.35;71.02;97860.53;5427314;26;20004;-72
2024/04/24 07:56:51;;;;;;;10.55;3.97;;;;;;;6.24;71.23;97836.78;5414754;26;20007;-72
2024/04/24 07:59:16;;;;;;;8.13;3.38;;;;;;;6.52;70.73;97844.56;5425642;26;20487;-72
2024/04/24 08:01:41;;;;;;;5.72;3.50;;;;;;;6.48;70.87;97843.44;5423124;26;20010;-73
2024/04/24 08:04:07;;;;;;;5.35;2.45;;;;;;;6.66;69.64;97851.88;5413398;26;20000;-72
2024/04/24 08:06:32;;;;;;;5.57;3.05;;;;;;;6.57;69.99;97823.41;5418867;26;19998;-72
2024/04/24 08:08:57;;;;;;;14.32;3.67;;;;;;;6.69;69.67;97837.34;5448729;26;20463;-73
2024/04/24 08:11:23;;;;;;;6.38;2.58;;;;;;;6.86;69.47;97842.56;5447720;26;20466;-73
2024/04/24 08:13:48;;;;;;;5.40;2.35;;;;;;;6.78;69.41;97841.97;5449095;26;20473;-72
2024/04/24 08:16:13;;;;;;;6.95;2.88;;;;;;;6.79;68.87;97842.75;5449031;26;20006;-73
2024/04/24 08:18:38;;;;;;;9.73;3.00;;;;;;;6.95;68.41;97849.00;5449167;26;19991;-73
2024/04/24 08:21:04;;;;;;;7.50;3.40;;;;;;;7.05;67.70;97844.63;5434325;26;20014;-72
2024/04/24 08:23:29;;;;;;;6.70;2.47;;;;;;;6.94;67.98;97828.84;5439636;26;20401;-73
2024/04/24 08:25:55;;;;;;;7.25;3.00;;;;;;;6.89;67.71;97831.44;5448845;26;20449;-73
2024/04/24 08:28:20;;;;;;;8.50;2.40;;;;;;;6.85;67.72;97823.19;5448844;26;19995;-72
2024/04/24 08:30:45;;;;;;;6.53;2.47;;;;;;;6.98;67.34;97836.06;5447761;26;19991;-73
2024/04/24 08:33:11;;;;;;;8.77;2.67;;;;;;;7.09;67.50;97836.97;5443626;26;20007;-73
2024/04/24 08:35:36;;;;;;;3.65;2.10;;;;;;;7.06;67.45;97838.25;5413061;26;19992;-73
2024/04/24 08:38:01;;;;;;;8.52;2.72;;;;;;;7.19;67.17;97839.72;5412623;26;19996;-73
2024/04/24 08:40:28;;;;;;;8.73;2.80;;;;;;;7.17;66.86;97834.66;5413261;26;20455;-73
2024/04/24 08:42:54;;;;;;;5.30;2.20;;;;;;;7.36;66.75;97835.09;5413404;26;20072;-73
2024/04/24 08:45:19;;;;;;;5.90;2.30;;;;;;;7.13;66.75;97816.84;5413135;26;20444;-73
2024/04/24 08:47:45;;;;;;;8.05;2.20;;;;;;;7.27;66.67;97832.09;5412349;26;20000;-73
2024/04/24 08:50:11;;;;;;;10.02;3.22;;;;;;;7.33;66.38;97838.25;5412680;26;20018;-73
2024/04/24 08:52:45;;;;;;;13.82;3.20;;;;;;;7.46;65.73;97840.50;5412351;26;19999;-73
2024/04/24 08:55:13;;;;;;;5.75;2.47;;;;;;;7.46;65.55;97833.34;5412735;26;20014;-73
2024/04/24 08:57:40;;;;;;;5.80;2.75;;;;;;;7.40;65.52;97834.31;5412384;26;20557;-73
2024/04/24 09:00:06;;;;;;;6.60;3.72;;;;;;;7.59;65.30;97829.44;5411075;26;20012;-73
2024/04/24 09:02:36;;;;;;;4.88;2.80;;;;;;;7.62;64.33;97822.84;5412047;26;20007;-73
2024/04/24 09:05:03;;;;;;;5.60;2.22;;;;;;;7.70;65.10;97832.97;5412465;26;20132;-73
2024/04/24 09:07:29;;;;;;;6.20;2.85;;;;;;;7.67;64.52;97833.47;5415254;26;21122;-73
2024/04/24 09:09:55;;;;;;;5.20;2.83;;;;;;;7.67;64.71;97807.72;5448190;26;20003;-73
2024/04/24 09:12:21;;;;;;;3.75;2.50;;;;;;;7.73;64.08;97824.50;5445188;26;20456;-73
2024/04/24 09:14:47;;;;;;;5.50;2.78;;;;;;;7.69;64.33;97815.47;5439338;26;20005;-73
2024/04/24 09:17:12;;;;;;;5.85;2.58;;;;;;;7.79;64.33;97823.50;5448237;26;19995;-73
2024/04/24 09:19:39;;;;;;;6.40;2.53;;;;;;;7.63;63.05;97808.47;5443464;26;20005;-73
2024/04/24 09:22:04;;;;;;;6.22;2.70;;;;;;;7.85;63.15;97830.44;5446471;26;20023;-73
2024/04/24 09:24:31;;;;;;;8.30;2.95;;;;;;;7.90;63.68;97817.19;5447869;26;19991;-73
2024/04/24 09:26:56;;;;;;;3.70;2.60;;;;;;;8.02;63.11;97817.78;5448075;26;20412;-73
2024/04/24 09:29:22;;;;;;;5.70;2.50;;;;;;;7.84;63.20;97818.22;5448184;26;20003;-73
2024/04/24 09:31:48;;;;;;;7.63;2.92;;;;;;;7.99;63.19;97820.97;5443399;26;19995;-74
2024/04/24 09:34:14;;;;;;;7.20;3.00;;;;;;;7.78;62.53;97803.28;5447799;26;20368;-74
2024/04/24 09:36:42;;;;;;;7.38;3.17;;;;;;;7.79;63.50;97812.84;5443018;26;20075;-73
2024/04/24 09:39:08;;;;;;;8.55;3.45;;;;;;;7.84;63.21;97815.56;5445293;26;20003;-73
2024/04/24 09:41:35;;;;;;;8.88;3.67;;;;;;;7.76;64.01;97805.38;5412634;26;19992;-73
2024/04/24 09:44:01;;;;;;;6.32;3.08;;;;;;;7.71;64.48;97819.44;5413585;26;19996;-74
2024/04/24 09:46:28;;;;;;;4.68;2.72;;;;;;;7.79;63.83;97810.22;5415305;26;20042;-74
2024/04/24 09:48:53;;;;;;;6.03;3.80;;;;;;;7.73;64.66;97822.66;5425718;26;20002;-73
2024/04/24 09:51:18;;;;;;;3.88;2.55;;;;;;;7.58;64.36;97823.34;5446112;26;20331;-74
2024/04/24 09:53:44;;;;;;;6.05;3.40;;;;;;;7.60;65.21;97819.63;5438670;26;20010;-74
2024/04/24 09:56:21;;;;;;;5.35;3.28;;;;;;;7.49;64.94;97822.19;5415153;26;19999;-73
2024/04/24 09:58:50;;;;;;;7.15;3.60;;;;;;;7.52;64.83;97834.97;5415210;26;20485;-74
2024/04/24 10:01:16;;;;;;;5.85;3.13;;;;;;;7.30;66.05;97844.88;5414690;26;20003;-73
2024/04/24 10:03:45;;;;;;;5.82;3.22;;;;;;;7.23;66.44;97830.22;5415235;26;20000;-73
2024/04/24 10:06:14;;;;;;;9.10;3.33;;;;;;;7.37;66.36;97837.50;5414235;26;19995;-73
2024/04/24 10:08:42;;;;;;;6.10;3.67;;;;;;;7.42;65.79;97836.75;5414892;26;20137;-74
2024/04/24 10:11:12;;;;;;;9.05;2.58;;;;;;;7.14;66.87;97842.34;5415309;26;20003;-73
2024/04/24 10:13:40;;;;;;;8.20;2.90;;;;;;;7.17;67.14;97834.66;5423321;26;20005;-74
2024/04/24 10:16:07;;;;;;;8.55;2.75;;;;;;;7.28;67.18;97835.56;5450932;26;19999;-74
2024/04/24 10:18:35;;;;;;;3.30;2.53;;;;;;;7.32;67.04;97832.13;5450681;26;20448;-74
2024/04/24 10:21:04;;;;;;;3.17;2.20;;;;;;;7.24;67.19;97826.50;5450709;26;19999;-74
2024/04/24 10:23:30;;;;;;;2.13;1.75;;;;;;;7.34;66.93;97815.97;5450753;26;20343;-74
2024/04/24 10:25:56;;;;;;;2.45;1.83;;;;;;;7.41;66.87;97825.31;5450809;26;20005;-74
2024/04/24 10:28:23;;;;;;;5.82;1.98;;;;;;;7.48;66.53;97825.09;5441394;26;19999;-74
2024/04/24 10:30:49;;;;;;;4.60;2.03;;;;;;;7.56;66.56;97814.81;5450874;26;20447;-74
2024/04/24 10:33:15;;;;;;;4.65;2.28;;;;;;;7.61;65.93;97798.13;5450512;26;20006;-74
2024/04/24 10:35:41;;;;;;;4.28;2.50;;;;;;;7.66;65.89;97813.31;5450565;26;20006;-74
2024/04/24 10:38:07;;;;;;;1.38;1.27;;;;;;;7.65;66.43;97803.72;5450308;26;20006;-73
2024/04/24 10:40:32;;;;;;;1.85;1.70;;;;;;;7.72;65.76;97797.16;5450655;26;19991;-73
2024/04/24 10:43:05;;;;;;;3.30;1.85;;;;;;;7.81;66.00;97800.94;5448575;26;19995;-74
2024/04/24 10:45:37;;;;;;;6.50;1.77;;;;;;;7.85;65.41;97796.69;5450428;26;20079;-73
2024/04/24 10:48:03;;;;;;;1.80;1.50;;;;;;;7.95;65.34;97804.72;5450559;26;20379;-73
2024/04/24 10:50:29;;;;;;;4.32;1.88;;;;;;;7.80;66.00;97803.84;5450886;26;20003;-74
2024/04/24 10:52:56;;;;;;;4.05;1.70;;;;;;;7.82;65.66;97805.16;5449519;26;20014;-74
2024/04/24 10:55:22;;;;;;;6.75;2.10;;;;;;;7.90;65.78;97801.25;5450590;26;20478;-74
2024/04/24 10:57:50;;;;;;;4.50;1.90;;;;;;;7.76;65.60;97806.19;5448267;26;20067;-75
2024/04/24 11:00:17;;;;;;;4.40;1.98;;;;;;;7.74;66.05;97812.81;5450272;26;19995;-74
2024/04/24 11:02:44;;;;;;;6.05;2.33;;;;;;;7.79;66.93;97797.72;5450297;26;19991;-73
2024/04/24 11:05:11;;;;;;;3.28;2.30;;;;;;;7.79;66.68;97794.28;5445802;26;19995;-73
2024/04/24 11:07:36;;;;;;;4.82;2.88;;;;;;;7.78;66.58;97788.16;5449953;26;20007;-74
2024/04/24 11:10:03;;;;;;;3.45;2.38;;;;;;;7.83;67.28;97796.16;5449880;26;20002;-74
2024/04/24 11:12:28;;;;;;;6.65;2.60;;;;;;;7.74;67.44;97795.03;5426891;26;19996;-74
2024/04/24 11:14:54;;;;;;;5.55;3.28;;;;;;;7.65;67.49;97763.88;5418717;26;20260;-74
2024/04/24 11:17:24;;;;;;;3.25;2.40;;;;;;;7.83;67.18;97774.91;5414078;26;20452;-74
2024/04/24 11:19:49;;;;;;;4.03;2.70;;;;;;;8.05;66.83;97783.53;5436268;26;20005;-74
2024/04/24 11:22:25;;;;;;;4.75;3.30;;;;;;;8.14;66.62;97771.38;5445996;26;20458;-73
2024/04/24 11:24:51;;;;;;;4.32;3.15;;;;;;;8.24;65.93;97775.91;5447406;26;20018;-73
2024/04/24 11:27:16;;;;;;;6.72;2.92;;;;;;;8.44;65.83;97762.72;5449979;26;19995;-74
2024/04/24 11:29:41;;;;;;;7.43;3.08;;;;;;;8.53;67.19;97773.66;5447619;26;19999;-74